createdAt,value
2017-06-08T00:00:45.295Z,15.03
2017-06-08T00:01:45.297Z,15.06
2017-06-08T00:02:45.646Z,15.05
2017-06-08T00:03:45.375Z,15.06
2017-06-08T00:04:45.412Z,15.11
2017-06-08T00:05:45.450Z,15.08
2017-06-08T00:06:45.487Z,15.03
2017-06-08T00:07:45.525Z,15.03
2017-06-08T00:08:45.568Z,15.03
2017-06-08T00:09:45.605Z,15.11
2017-06-08T00:10:45.643Z,15.02
2017-06-08T00:11:45.679Z,14.94
2017-06-08T00:12:45.722Z,14.93
2017-06-08T00:13:45.755Z,14.99
2017-06-08T00:14:45.793Z,14.94
2017-06-08T00:15:45.834Z,14.98
2017-06-08T00:16:45.870Z,15.05
2017-06-08T00:17:45.919Z,14.98
2017-06-08T00:18:45.946Z,14.98
2017-06-08T00:19:46.288Z,14.95
2017-06-08T00:20:46.025Z,14.98
2017-06-08T00:21:46.366Z,14.93
2017-06-08T00:22:46.413Z,14.93
2017-06-08T00:23:46.445Z,14.98
2017-06-08T00:24:46.173Z,14.95
2017-06-08T00:25:46.522Z,14.88
2017-06-08T00:26:46.254Z,14.93
2017-06-08T00:27:46.291Z,14.91
2017-06-08T00:28:46.327Z,14.9
2017-06-08T00:29:46.365Z,14.86
2017-06-08T00:30:46.401Z,14.91
2017-06-08T00:31:46.441Z,14.93
2017-06-08T00:32:46.479Z,14.8
2017-06-08T00:33:46.524Z,14.84
2017-06-08T00:34:46.862Z,14.84
2017-06-08T00:35:46.595Z,14.86
2017-06-08T00:36:46.632Z,14.81
2017-06-08T00:37:46.674Z,14.81
2017-06-08T00:38:46.710Z,14.86
2017-06-08T00:39:46.748Z,14.8
2017-06-08T00:40:46.784Z,14.72
2017-06-08T00:41:47.140Z,14.69
2017-06-08T00:42:46.859Z,14.71
2017-06-08T00:43:46.903Z,14.71
2017-06-08T00:44:46.936Z,14.72
2017-06-08T00:45:46.979Z,14.68
2017-06-08T00:46:47.322Z,14.78
2017-06-08T00:47:47.052Z,14.69
2017-06-08T00:48:47.091Z,14.64
2017-06-08T00:49:47.125Z,14.65
2017-06-08T00:50:47.163Z,14.69
2017-06-08T00:51:47.206Z,14.65
2017-06-08T00:52:47.549Z,14.67
2017-06-08T00:53:47.589Z,14.65
2017-06-08T00:54:47.628Z,14.68
2017-06-08T00:55:47.354Z,14.64
2017-06-08T00:56:47.398Z,14.57
2017-06-08T00:57:47.430Z,14.53
2017-06-08T00:58:47.468Z,14.61
2017-06-08T00:59:47.505Z,14.56
2017-06-08T01:00:47.548Z,14.52
2017-06-08T01:01:47.581Z,14.56
2017-06-08T01:02:47.621Z,14.46
2017-06-08T01:03:47.657Z,14.54
2017-06-08T01:04:47.701Z,14.5
2017-06-08T01:05:47.734Z,14.5
2017-06-08T01:06:47.776Z,14.53
2017-06-08T01:07:47.811Z,14.52
2017-06-08T01:08:47.853Z,14.5
2017-06-08T01:09:48.193Z,14.47
2017-06-08T01:10:47.922Z,14.35
2017-06-08T01:11:47.963Z,14.46
2017-06-08T01:12:48.003Z,14.44
2017-06-08T01:13:48.080Z,14.37
2017-06-08T01:14:48.072Z,14.37
2017-06-08T01:15:48.120Z,14.34
2017-06-08T01:16:48.153Z,14.35
2017-06-08T01:17:48.228Z,14.37
2017-06-08T01:18:48.234Z,14.39
2017-06-08T01:19:48.263Z,14.37
2017-06-08T01:20:48.302Z,14.39
2017-06-08T01:21:48.341Z,14.37
2017-06-08T01:22:48.682Z,14.37
2017-06-08T01:23:48.417Z,14.39
2017-06-08T01:24:48.760Z,14.28
2017-06-08T01:25:48.488Z,14.31
2017-06-08T01:26:48.533Z,14.32
2017-06-08T01:27:48.572Z,14.34
2017-06-08T01:28:48.605Z,14.29
2017-06-08T01:29:48.643Z,14.34
2017-06-08T01:30:48.679Z,14.34
2017-06-08T01:31:49.024Z,14.34
2017-06-08T01:32:48.755Z,14.37
2017-06-08T01:33:49.105Z,14.28
2017-06-08T01:34:48.830Z,14.34
2017-06-08T01:35:48.874Z,14.29
2017-06-08T01:36:48.909Z,14.31
2017-06-08T01:37:48.941Z,14.28
2017-06-08T01:38:48.980Z,14.29
2017-06-08T01:39:49.022Z,14.29
2017-06-08T01:40:49.373Z,14.31
2017-06-08T01:41:49.099Z,14.28
2017-06-08T01:42:49.132Z,14.21
2017-06-08T01:43:49.172Z,14.28
2017-06-08T01:44:49.208Z,14.34
2017-06-08T01:45:49.249Z,14.21
2017-06-08T01:46:49.283Z,14.27
2017-06-08T01:47:49.321Z,14.17
2017-06-08T01:48:49.364Z,14.2
2017-06-08T01:49:49.394Z,14.17
2017-06-08T01:50:49.443Z,14.24
2017-06-08T01:51:49.471Z,14.34
2017-06-08T01:52:49.509Z,14.2
2017-06-08T01:53:49.549Z,14.21
2017-06-08T01:54:49.594Z,14.21
2017-06-08T01:55:49.933Z,14.28
2017-06-08T01:56:49.666Z,14.16
2017-06-08T01:57:50.006Z,14.17
2017-06-08T01:58:49.736Z,14.17
2017-06-08T01:59:49.775Z,14.09
2017-06-08T02:00:49.819Z,14.1
2017-06-08T02:01:50.159Z,14.12
2017-06-08T02:02:49.939Z,14.07
2017-06-08T02:03:49.927Z,14.12
2017-06-08T02:04:49.963Z,14.12
2017-06-08T02:05:50.003Z,14.13
2017-06-08T02:06:50.037Z,14.1
2017-06-08T02:07:50.074Z,14.1
2017-06-08T02:08:50.421Z,14.02
2017-06-08T02:09:50.149Z,14.04
2017-06-08T02:10:50.189Z,13.96
2017-06-08T02:11:50.529Z,13.91
2017-06-08T02:12:50.265Z,14.06
2017-06-08T02:13:50.300Z,13.96
2017-06-08T02:14:50.339Z,13.95
2017-06-08T02:15:50.685Z,13.92
2017-06-08T02:16:50.416Z,13.92
2017-06-08T02:17:50.757Z,13.95
2017-06-08T02:18:50.487Z,13.95
2017-06-08T02:19:50.529Z,13.87
2017-06-08T02:20:50.873Z,13.88
2017-06-08T02:21:50.603Z,13.91
2017-06-08T02:22:50.948Z,13.96
2017-06-08T02:23:50.676Z,13.84
2017-06-08T02:24:50.713Z,13.83
2017-06-08T02:25:50.753Z,13.89
2017-06-08T02:26:50.789Z,13.87
2017-06-08T02:27:50.827Z,13.87
2017-06-08T02:28:51.175Z,13.81
2017-06-08T02:29:50.899Z,13.87
2017-06-08T02:30:50.945Z,13.76
2017-06-08T02:31:50.975Z,13.83
2017-06-08T02:32:51.017Z,13.81
2017-06-08T02:33:51.362Z,13.76
2017-06-08T02:34:51.406Z,13.81
2017-06-08T02:35:51.130Z,13.74
2017-06-08T02:36:51.161Z,13.73
2017-06-08T02:37:51.205Z,13.63
2017-06-08T02:38:51.240Z,13.77
2017-06-08T02:39:51.278Z,13.71
2017-06-08T02:40:51.625Z,13.63
2017-06-08T02:41:51.350Z,13.73
2017-06-08T02:42:51.387Z,13.69
2017-06-08T02:43:51.422Z,13.67
2017-06-08T02:44:51.462Z,13.69
2017-06-08T02:45:51.811Z,13.71
2017-06-08T02:46:51.547Z,13.71
2017-06-08T02:47:51.885Z,13.71
2017-06-08T02:48:51.612Z,13.7
2017-06-08T02:49:51.957Z,13.7
2017-06-08T02:50:51.686Z,13.71
2017-06-08T02:51:51.726Z,13.69
2017-06-08T02:52:51.764Z,13.7
2017-06-08T02:53:51.799Z,13.74
2017-06-08T02:54:51.838Z,13.69
2017-06-08T02:55:51.875Z,13.74
2017-06-08T02:56:51.911Z,13.71
2017-06-08T02:57:51.949Z,13.63
2017-06-08T02:58:51.986Z,13.74
2017-06-08T02:59:52.024Z,13.76
2017-06-08T03:00:52.061Z,13.67
2017-06-08T03:01:52.098Z,13.71
2017-06-08T03:02:52.137Z,13.79
2017-06-08T03:03:52.173Z,13.73
2017-06-08T03:04:52.211Z,13.71
2017-06-08T03:05:52.253Z,13.62
2017-06-08T03:06:52.287Z,13.71
2017-06-08T03:07:52.324Z,13.63
2017-06-08T03:08:52.361Z,13.76
2017-06-08T03:09:52.398Z,13.77
2017-06-08T03:10:52.435Z,13.83
2017-06-08T03:11:52.470Z,13.79
2017-06-08T03:12:52.511Z,13.74
2017-06-08T03:13:52.557Z,13.8
2017-06-08T03:14:52.584Z,13.74
2017-06-08T03:15:52.626Z,13.79
2017-06-08T03:16:52.972Z,13.89
2017-06-08T03:17:53.005Z,13.83
2017-06-08T03:18:52.736Z,13.87
2017-06-08T03:19:52.776Z,13.83
2017-06-08T03:20:52.811Z,13.89
2017-06-08T03:21:52.850Z,13.98
2017-06-08T03:22:53.195Z,13.98
2017-06-08T03:23:53.230Z,14.04
2017-06-08T03:24:52.962Z,14.09
2017-06-08T03:25:52.999Z,14.14
2017-06-08T03:26:53.040Z,14.14
2017-06-08T03:27:53.074Z,14.16
2017-06-08T03:28:53.113Z,14.13
2017-06-08T03:29:53.151Z,14.28
2017-06-08T03:30:53.191Z,14.44
2017-06-08T03:31:53.229Z,14.54
2017-06-08T03:32:53.267Z,14.81
2017-06-08T03:33:53.304Z,15.05
2017-06-08T03:34:53.340Z,15.27
2017-06-08T03:35:53.381Z,15.54
2017-06-08T03:36:53.419Z,15.82
2017-06-08T03:37:53.452Z,16
2017-06-08T03:38:53.496Z,16
2017-06-08T03:39:53.533Z,16.04
2017-06-08T03:40:53.571Z,16.04
2017-06-08T03:41:53.616Z,16.01
2017-06-08T03:42:53.648Z,15.93
2017-06-08T03:43:53.689Z,15.94
2017-06-08T03:44:53.726Z,15.92
2017-06-08T03:45:53.766Z,15.81
2017-06-08T03:46:53.805Z,15.81
2017-06-08T03:47:53.845Z,15.56
2017-06-08T03:48:53.880Z,15.51
2017-06-08T03:49:53.921Z,15.49
2017-06-08T03:50:53.962Z,15.41
2017-06-08T03:51:53.996Z,15.43
2017-06-08T03:52:54.042Z,15.42
2017-06-08T03:53:54.073Z,15.41
2017-06-08T03:54:54.153Z,15.59
2017-06-08T03:55:54.153Z,15.6
2017-06-08T03:56:54.500Z,15.59
2017-06-08T03:57:54.262Z,15.72
2017-06-08T03:58:54.574Z,15.76
2017-06-08T03:59:54.614Z,15.86
2017-06-08T04:00:54.346Z,15.92
2017-06-08T04:01:54.385Z,15.84
2017-06-08T04:02:54.421Z,15.99
2017-06-08T04:03:54.461Z,15.99
2017-06-08T04:04:54.498Z,16.06
2017-06-08T04:05:54.845Z,15.94
2017-06-08T04:06:54.591Z,15.97
2017-06-08T04:07:54.613Z,16
2017-06-08T04:08:54.657Z,15.96
2017-06-08T04:09:54.700Z,15.86
2017-06-08T04:10:54.736Z,15.96
2017-06-08T04:11:54.774Z,15.97
2017-06-08T04:12:54.808Z,16.07
2017-06-08T04:13:55.161Z,16.16
2017-06-08T04:14:54.890Z,16.41
2017-06-08T04:15:54.925Z,16.74
2017-06-08T04:16:54.966Z,16.96
2017-06-08T04:17:55.316Z,17.3
2017-06-08T04:18:55.046Z,17.67
2017-06-08T04:19:55.085Z,18.03
2017-06-08T04:20:55.125Z,18.5
2017-06-08T04:21:55.164Z,18.79
2017-06-08T04:22:55.520Z,19.23
2017-06-08T04:23:55.247Z,19.54
2017-06-08T04:24:55.280Z,19.84
2017-06-08T04:25:55.323Z,20.16
2017-06-08T04:26:55.363Z,20.31
2017-06-08T04:27:55.407Z,20.54
2017-06-08T04:28:55.751Z,20.8
2017-06-08T04:29:55.791Z,21.06
2017-06-08T04:30:55.527Z,21.13
2017-06-08T04:31:55.876Z,21.3
2017-06-08T04:32:55.923Z,21.34
2017-06-08T04:33:55.647Z,21.34
2017-06-08T04:34:55.997Z,21.35
2017-06-08T04:35:55.728Z,21.27
2017-06-08T04:36:55.772Z,20.99
2017-06-08T04:37:55.814Z,20.87
2017-06-08T04:38:55.852Z,20.61
2017-06-08T04:39:55.899Z,20.46
2017-06-08T04:40:55.970Z,20.27
2017-06-08T04:41:55.977Z,20.2
2017-06-08T04:42:56.022Z,19.97
2017-06-08T04:43:56.059Z,19.91
2017-06-08T04:44:56.098Z,20
2017-06-08T04:45:56.447Z,20.12
2017-06-08T04:46:56.181Z,20.31
2017-06-08T04:47:56.217Z,20.72
2017-06-08T04:48:56.265Z,21.08
2017-06-08T04:49:56.301Z,21.5
2017-06-08T04:50:56.345Z,21.71
2017-06-08T04:51:56.389Z,21.71
2017-06-08T04:52:56.425Z,21.64
2017-06-08T04:53:56.471Z,21.36
2017-06-08T04:54:56.508Z,21.16
2017-06-08T04:55:56.552Z,20.99
2017-06-08T04:56:56.591Z,20.74
2017-06-08T04:57:56.635Z,20.5
2017-06-08T04:58:56.676Z,20.28
2017-06-08T04:59:56.719Z,20.1
2017-06-08T05:00:56.763Z,20.21
2017-06-08T05:01:56.806Z,20.31
2017-06-08T05:02:56.841Z,20.58
2017-06-08T05:03:56.883Z,20.99
2017-06-08T05:04:57.245Z,21.45
2017-06-08T05:05:57.009Z,21.9
2017-06-08T05:06:57.029Z,22.06
2017-06-08T05:07:57.051Z,22.17
2017-06-08T05:08:57.090Z,22.01
2017-06-08T05:09:57.130Z,21.92
2017-06-08T05:10:57.189Z,21.74
2017-06-08T05:11:57.213Z,21.59
2017-06-08T05:12:57.255Z,21.48
2017-06-08T05:13:57.606Z,21.34
2017-06-08T05:14:57.647Z,21.27
2017-06-08T05:15:57.380Z,21.14
2017-06-08T05:16:57.423Z,20.89
2017-06-08T05:17:57.461Z,20.95
2017-06-08T05:18:57.504Z,20.81
2017-06-08T05:19:57.541Z,20.69
2017-06-08T05:20:57.624Z,20.56
2017-06-08T05:21:57.624Z,20.59
2017-06-08T05:22:57.666Z,20.51
2017-06-08T05:23:57.706Z,20.53
2017-06-08T05:24:58.055Z,20.41
2017-06-08T05:25:57.790Z,20.46
2017-06-08T05:26:57.838Z,20.35
2017-06-08T05:27:58.179Z,20.38
2017-06-08T05:28:57.914Z,20.27
2017-06-08T05:29:57.952Z,20.27
2017-06-08T05:30:57.995Z,20.18
2017-06-08T05:31:58.035Z,20.21
2017-06-08T05:32:58.076Z,20.15
2017-06-08T05:33:58.119Z,20.03
2017-06-08T05:34:58.156Z,20.13
2017-06-08T05:35:58.203Z,20.3
2017-06-08T05:36:58.241Z,20.41
2017-06-08T05:37:58.279Z,20.8
2017-06-08T05:38:58.321Z,21.24
2017-06-08T05:39:58.361Z,21.83
2017-06-08T05:40:58.714Z,22.56
2017-06-08T05:41:58.446Z,23.6
2017-06-08T05:42:58.488Z,24.53
2017-06-08T05:43:58.533Z,25.32
2017-06-08T05:44:58.575Z,26.06
2017-06-08T05:45:58.929Z,26.87
2017-06-08T05:46:58.971Z,27.53
2017-06-08T05:47:58.706Z,28.19
2017-06-08T05:48:58.754Z,28.88
2017-06-08T05:49:58.795Z,29.4
2017-06-08T05:50:58.849Z,29.9
2017-06-08T05:51:58.897Z,30.34
2017-06-08T05:52:58.937Z,30.67
2017-06-08T05:53:59.219Z,30.94
2017-06-08T05:54:59.248Z,31.21
2017-06-08T05:55:59.085Z,31.38
2017-06-08T05:56:59.126Z,31.38
2017-06-08T05:57:59.174Z,31.48
2017-06-08T05:58:59.226Z,31.73
2017-06-08T05:59:59.270Z,32.06
2017-06-08T06:00:59.323Z,32.3
2017-06-08T06:01:59.370Z,32.52
2017-06-08T06:02:59.418Z,32.66
2017-06-08T06:03:59.466Z,32.67
2017-06-08T06:04:59.517Z,32.91
2017-06-08T06:05:59.569Z,33.08
2017-06-08T06:06:59.623Z,33.29
2017-06-08T06:07:59.668Z,33.41
2017-06-08T06:09:00.026Z,33.33
2017-06-08T06:10:00.076Z,33.3
2017-06-08T06:10:59.814Z,33.23
2017-06-08T06:11:59.869Z,33.07
2017-06-08T06:13:00.348Z,32.86
2017-06-08T06:14:00.028Z,32.57
2017-06-08T06:15:00.025Z,32.14
2017-06-08T06:16:00.074Z,31.98
2017-06-08T06:17:00.118Z,31.93
2017-06-08T06:18:00.480Z,32.03
2017-06-08T06:19:00.225Z,32.17
2017-06-08T06:20:00.270Z,32.54
2017-06-08T06:21:00.352Z,32.8
2017-06-08T06:22:00.369Z,33.03
2017-06-08T06:23:00.420Z,33.03
2017-06-08T06:24:00.784Z,32.69
2017-06-08T06:25:00.558Z,32.4
2017-06-08T06:26:00.715Z,32.05
2017-06-08T06:27:00.641Z,31.93
2017-06-08T06:28:00.674Z,32.03
2017-06-08T06:29:00.724Z,32.15
2017-06-08T06:30:01.119Z,32.13
2017-06-08T06:31:00.825Z,31.99
2017-06-08T06:32:00.877Z,31.96
2017-06-08T06:33:00.920Z,31.76
2017-06-08T06:34:01.012Z,31.46
2017-06-08T06:35:01.020Z,31.54
2017-06-08T06:36:01.075Z,31.65
2017-06-08T06:37:01.143Z,31.57
2017-06-08T06:38:01.178Z,31.5
2017-06-08T06:39:01.232Z,31.35
2017-06-08T06:40:01.297Z,31.36
2017-06-08T06:41:01.323Z,31.38
2017-06-08T06:42:01.370Z,31.38
2017-06-08T06:43:01.420Z,31.26
2017-06-08T06:44:01.468Z,31.17
2017-06-08T06:45:01.521Z,31.12
2017-06-08T06:46:01.568Z,31.23
2017-06-08T06:47:01.668Z,31.23
2017-06-08T06:48:01.664Z,31.3
2017-06-08T06:49:01.716Z,31.24
2017-06-08T06:50:01.766Z,31.18
2017-06-08T06:51:01.844Z,31.31
2017-06-08T06:52:01.866Z,31.23
2017-06-08T06:53:02.223Z,31.3
2017-06-08T06:54:02.274Z,31.2
2017-06-08T06:55:02.012Z,31.24
2017-06-08T06:56:02.128Z,31.12
2017-06-08T06:57:02.668Z,30.89
2017-06-08T06:58:02.160Z,30.61
2017-06-08T06:59:02.225Z,30.49
2017-06-08T07:00:02.565Z,30.37
2017-06-08T07:01:02.620Z,30.4
2017-06-08T07:02:02.465Z,30.46
2017-06-08T07:03:02.732Z,30.52
2017-06-08T07:04:02.474Z,30.59
2017-06-08T07:05:02.556Z,30.54
2017-06-08T07:06:02.562Z,30.53
2017-06-08T07:07:02.601Z,30.52
2017-06-08T07:08:03.513Z,30.38
2017-06-08T07:09:02.697Z,30.19
2017-06-08T07:10:03.744Z,30.09
2017-06-08T07:11:02.799Z,30.02
2017-06-08T07:12:02.864Z,29.93
2017-06-08T07:13:03.023Z,29.68
2017-06-08T07:14:02.948Z,29.6
2017-06-08T07:15:03.307Z,29.43
2017-06-08T07:16:03.349Z,29.26
2017-06-08T07:17:03.213Z,29.13
2017-06-08T07:18:03.157Z,29.1
2017-06-08T07:19:03.514Z,28.96
2017-06-08T07:20:03.269Z,28.81
2017-06-08T07:21:03.279Z,28.7
2017-06-08T07:22:03.324Z,28.63
2017-06-08T07:23:03.370Z,28.62
2017-06-08T07:24:03.724Z,28.73
2017-06-08T07:25:04.085Z,28.87
2017-06-08T07:26:03.516Z,28.9
2017-06-08T07:27:03.562Z,29
2017-06-08T07:28:03.605Z,29.15
2017-06-08T07:29:03.659Z,29.45
2017-06-08T07:30:04.010Z,29.53
2017-06-08T07:31:04.061Z,29.75
2017-06-08T07:32:03.813Z,29.99
2017-06-08T07:33:04.153Z,29.94
2017-06-08T07:34:03.893Z,30.07
2017-06-08T07:35:03.941Z,30.36
2017-06-08T07:36:03.989Z,30.45
2017-06-08T07:37:04.042Z,30.67
2017-06-08T07:38:04.088Z,30.81
2017-06-08T07:39:04.221Z,30.68
2017-06-08T07:40:04.225Z,30.72
2017-06-08T07:41:04.237Z,30.67
2017-06-08T07:42:04.286Z,30.64
2017-06-08T07:43:04.642Z,30.64
2017-06-08T07:44:04.738Z,30.68
2017-06-08T07:45:04.743Z,30.84
2017-06-08T07:46:04.476Z,30.93
2017-06-08T07:47:04.532Z,31.17
2017-06-08T07:48:04.576Z,31.31
2017-06-08T07:49:04.952Z,31.53
2017-06-08T07:50:04.679Z,31.58
2017-06-08T07:51:04.726Z,31.65
2017-06-08T07:52:04.777Z,31.77
2017-06-08T07:53:04.828Z,31.73
2017-06-08T07:54:04.880Z,31.76
2017-06-08T07:55:04.928Z,31.73
2017-06-08T07:56:05.163Z,31.61
2017-06-08T07:57:05.034Z,31.8
2017-06-08T07:58:05.084Z,32.02
2017-06-08T07:59:05.131Z,32.43
2017-06-08T08:00:05.182Z,32.8
2017-06-08T08:01:05.266Z,33.03
2017-06-08T08:02:05.283Z,33.14
2017-06-08T08:03:05.339Z,33.23
2017-06-08T08:04:05.386Z,33.43
2017-06-08T08:05:05.750Z,33.6
2017-06-08T08:06:05.493Z,33.8
2017-06-08T08:07:05.674Z,33.95
2017-06-08T08:08:05.630Z,34.04
2017-06-08T08:09:06.089Z,34.2
2017-06-08T08:10:06.137Z,34.46
2017-06-08T08:11:05.944Z,34.51
2017-06-08T08:12:05.975Z,34.81
2017-06-08T08:13:05.866Z,34.95
2017-06-08T08:14:05.911Z,35.14
2017-06-08T08:15:05.971Z,35.29
2017-06-08T08:16:06.019Z,35.37
2017-06-08T08:17:06.221Z,35.55
2017-06-08T08:18:06.129Z,35.5
2017-06-08T08:19:06.184Z,35.57
2017-06-08T08:20:06.539Z,35.42
2017-06-08T08:21:06.284Z,35.08
2017-06-08T08:22:06.343Z,34.76
2017-06-08T08:23:06.395Z,34.51
2017-06-08T08:24:06.573Z,34.36
2017-06-08T08:25:06.499Z,34.19
2017-06-08T08:26:06.795Z,33.97
2017-06-08T08:27:06.610Z,33.82
2017-06-08T08:28:07.164Z,33.68
2017-06-08T08:29:06.765Z,33.33
2017-06-08T08:30:06.937Z,32.64
2017-06-08T08:31:06.997Z,31.93
2017-06-08T08:32:06.871Z,31.57
2017-06-08T08:33:06.928Z,31.21
2017-06-08T08:34:06.978Z,31.04
2017-06-08T08:35:07.030Z,30.99
2017-06-08T08:36:07.072Z,30.67
2017-06-08T08:37:07.128Z,30.53
2017-06-08T08:38:07.234Z,30.53
2017-06-08T08:39:07.546Z,30.69
2017-06-08T08:40:07.722Z,30.93
2017-06-08T08:41:07.332Z,31.36
2017-06-08T08:42:07.686Z,31.91
2017-06-08T08:43:07.430Z,32.49
2017-06-08T08:44:07.495Z,32.91
2017-06-08T08:45:08.104Z,33.03
2017-06-08T08:46:08.201Z,33.15
2017-06-08T08:47:08.205Z,33.15
2017-06-08T08:48:08.198Z,33.26
2017-06-08T08:49:07.746Z,33.17
2017-06-08T08:50:07.801Z,33.06
2017-06-08T08:51:08.249Z,33.17
2017-06-08T08:52:07.977Z,33.06
2017-06-08T08:53:07.956Z,32.89
2017-06-08T08:54:08.056Z,32.92
2017-06-08T08:55:08.415Z,32.93
2017-06-08T08:56:08.426Z,33.06
2017-06-08T08:57:08.235Z,33.26
2017-06-08T08:58:08.496Z,33.55
2017-06-08T08:59:08.580Z,33.67
2017-06-08T09:00:08.691Z,33.86
2017-06-08T09:01:08.400Z,33.95
2017-06-08T09:02:08.458Z,33.97
2017-06-08T09:03:08.596Z,33.74
2017-06-08T09:04:08.553Z,33.63
2017-06-08T09:05:08.605Z,33.48
2017-06-08T09:06:08.662Z,33.49
2017-06-08T09:07:08.715Z,33.52
2017-06-08T09:08:08.770Z,33.45
2017-06-08T09:09:08.876Z,33.29
2017-06-08T09:10:08.879Z,33.08
2017-06-08T09:11:08.931Z,33.15
2017-06-08T09:12:08.992Z,33.36
2017-06-08T09:13:09.064Z,33.3
2017-06-08T09:14:09.119Z,33.31
2017-06-08T09:15:09.762Z,33.17
2017-06-08T09:16:09.207Z,33.1
2017-06-08T09:17:09.264Z,33.06
2017-06-08T09:18:09.315Z,32.99
2017-06-08T09:19:09.370Z,32.89
2017-06-08T09:20:09.423Z,32.71
2017-06-08T09:21:09.783Z,32.74
2017-06-08T09:22:09.534Z,32.74
2017-06-08T09:23:09.894Z,32.89
2017-06-08T09:24:09.646Z,32.98
2017-06-08T09:25:10.068Z,32.99
2017-06-08T09:26:09.756Z,32.96
2017-06-08T09:27:09.819Z,33.01
2017-06-08T09:28:09.902Z,33.15
2017-06-08T09:29:09.919Z,33.17
2017-06-08T09:30:09.977Z,33.22
2017-06-08T09:31:10.066Z,33.3
2017-06-08T09:32:10.092Z,33.27
2017-06-08T09:33:10.144Z,33.2
2017-06-08T09:34:10.209Z,33.13
2017-06-08T09:35:10.255Z,32.96
2017-06-08T09:36:10.311Z,32.79
2017-06-08T09:37:10.366Z,32.59
2017-06-08T09:38:10.421Z,32.39
2017-06-08T09:39:10.476Z,32.35
2017-06-08T09:40:10.532Z,32.3
2017-06-08T09:41:10.588Z,32.36
2017-06-08T09:42:10.647Z,32.3
2017-06-08T09:43:11.013Z,32
2017-06-08T09:44:10.758Z,31.75
2017-06-08T09:45:10.813Z,31.49
2017-06-08T09:46:11.372Z,31.2
2017-06-08T09:47:10.922Z,31.06
2017-06-08T09:48:10.979Z,30.91
2017-06-08T09:49:11.346Z,30.94
2017-06-08T09:50:11.111Z,30.8
2017-06-08T09:51:11.469Z,30.87
2017-06-08T09:52:11.526Z,30.81
2017-06-08T09:53:11.262Z,30.72
2017-06-08T09:54:11.324Z,30.64
2017-06-08T09:55:11.373Z,30.62
2017-06-08T09:56:11.430Z,30.53
2017-06-08T09:57:11.501Z,30.37
2017-06-08T09:58:11.538Z,30.19
2017-06-08T09:59:11.597Z,30.26
2017-06-08T10:00:11.650Z,30.27
2017-06-08T10:01:11.728Z,30.31
2017-06-08T10:02:11.811Z,30.12
2017-06-08T10:03:12.160Z,30.07
2017-06-08T10:04:11.884Z,30.05
2017-06-08T10:05:11.962Z,30.23
2017-06-08T10:06:11.980Z,30.33
2017-06-08T10:07:12.043Z,30.37
2017-06-08T10:08:12.096Z,30.3
2017-06-08T10:09:12.149Z,30.33
2017-06-08T10:10:12.204Z,30.15
2017-06-08T10:11:12.308Z,29.9
2017-06-08T10:12:12.620Z,29.74
2017-06-08T10:13:12.371Z,29.56
2017-06-08T10:14:12.425Z,29.37
2017-06-08T10:15:12.484Z,29.34
2017-06-08T10:16:12.848Z,29.25
2017-06-08T10:17:12.604Z,29.22
2017-06-08T10:18:12.651Z,29.35
2017-06-08T10:19:12.705Z,29.22
2017-06-08T10:20:13.076Z,29.18
2017-06-08T10:21:12.818Z,29.18
2017-06-08T10:22:12.869Z,29
2017-06-08T10:23:12.924Z,29.06
2017-06-08T10:24:12.981Z,28.97
2017-06-08T10:25:13.347Z,28.97
2017-06-08T10:26:13.098Z,28.84
2017-06-08T10:27:13.469Z,28.87
2017-06-08T10:28:13.205Z,28.78
2017-06-08T10:29:13.258Z,28.69
2017-06-08T10:30:13.627Z,28.63
2017-06-08T10:31:13.687Z,28.56
2017-06-08T10:32:13.417Z,28.4
2017-06-08T10:33:13.575Z,28.22
2017-06-08T10:34:13.524Z,28.1
2017-06-08T10:35:13.891Z,28.04
2017-06-08T10:36:13.638Z,28.07
2017-06-08T10:37:13.688Z,28.06
2017-06-08T10:38:13.833Z,28.13
2017-06-08T10:39:13.795Z,28.14
2017-06-08T10:40:13.853Z,28.17
2017-06-08T10:41:13.945Z,28.03
2017-06-08T10:42:13.956Z,27.86
2017-06-08T10:43:14.010Z,27.62
2017-06-08T10:44:14.064Z,27.48
2017-06-08T10:45:14.150Z,27.42
2017-06-08T10:46:14.201Z,27.38
2017-06-08T10:47:14.231Z,27.2
2017-06-08T10:48:14.306Z,27.33
2017-06-08T10:49:14.344Z,27.36
2017-06-08T10:50:14.408Z,27.33
2017-06-08T10:51:14.452Z,27.32
2017-06-08T10:52:14.513Z,27.26
2017-06-08T10:53:14.562Z,27.16
2017-06-08T10:54:14.922Z,27.2
2017-06-08T10:55:14.673Z,27.1
2017-06-08T10:56:14.722Z,27.16
2017-06-08T10:57:14.796Z,27.09
2017-06-08T10:58:14.833Z,27.01
2017-06-08T10:59:14.892Z,27.01
2017-06-08T11:00:14.984Z,27.04
2017-06-08T11:01:14.998Z,26.98
2017-06-08T11:02:15.071Z,26.84
2017-06-08T11:03:15.101Z,26.74
2017-06-08T11:04:15.462Z,26.69
2017-06-08T11:05:15.206Z,26.59
2017-06-08T11:06:15.453Z,26.4
2017-06-08T11:07:15.309Z,26.32
2017-06-08T11:08:15.679Z,26.25
2017-06-08T11:09:15.406Z,26.09
2017-06-08T11:10:15.458Z,25.98
2017-06-08T11:11:15.506Z,25.93
2017-06-08T11:12:15.558Z,25.89
2017-06-08T11:13:15.605Z,25.9
2017-06-08T11:14:15.700Z,25.86
2017-06-08T11:15:15.705Z,25.89
2017-06-08T11:16:15.751Z,25.82
2017-06-08T11:17:15.836Z,25.79
2017-06-08T11:18:15.862Z,25.74
2017-06-08T11:19:15.890Z,25.71
2017-06-08T11:20:15.938Z,25.83
2017-06-08T11:21:15.988Z,25.65
2017-06-08T11:22:16.344Z,25.61
2017-06-08T11:23:16.153Z,25.62
2017-06-08T11:24:16.130Z,25.53
2017-06-08T11:25:16.175Z,25.53
2017-06-08T11:26:16.289Z,25.54
2017-06-08T11:27:16.580Z,25.57
2017-06-08T11:28:16.315Z,25.47
2017-06-08T11:29:16.359Z,25.61
2017-06-08T11:30:16.715Z,25.56
2017-06-08T11:31:16.453Z,25.46
2017-06-08T11:32:16.496Z,25.44
2017-06-08T11:33:16.543Z,25.46
2017-06-08T11:34:16.592Z,25.34
2017-06-08T11:35:16.635Z,25.27
2017-06-08T11:36:16.988Z,25.19
2017-06-08T11:37:16.733Z,25.17
2017-06-08T11:38:16.774Z,25.16
2017-06-08T11:39:17.270Z,25.07
2017-06-08T11:40:17.168Z,25.16
2017-06-08T11:41:16.907Z,25.12
2017-06-08T11:42:16.955Z,25.1
2017-06-08T11:43:17.305Z,25.12
2017-06-08T11:44:17.039Z,25.1
2017-06-08T11:45:17.400Z,25.12
2017-06-08T11:46:17.135Z,25.07
2017-06-08T11:47:17.179Z,25.09
2017-06-08T11:48:17.228Z,25.12
2017-06-08T11:49:17.267Z,25.1
2017-06-08T11:50:17.315Z,25.12
2017-06-08T11:51:17.358Z,25.16
2017-06-08T11:52:17.403Z,25.27
2017-06-08T11:53:17.488Z,25.28
2017-06-08T11:54:17.500Z,25.31
2017-06-08T11:55:17.548Z,25.3
2017-06-08T11:56:17.585Z,25.27
2017-06-08T11:57:17.629Z,25.3
2017-06-08T11:58:17.678Z,25.3
2017-06-08T11:59:17.933Z,25.24
2017-06-08T12:00:17.764Z,25.3
2017-06-08T12:01:17.821Z,25.35
2017-06-08T12:02:17.856Z,25.13
2017-06-08T12:03:17.904Z,25.05
2017-06-08T12:04:18.253Z,25
2017-06-08T12:05:17.991Z,24.9
2017-06-08T12:06:18.076Z,24.94
2017-06-08T12:07:18.143Z,24.88
2017-06-08T12:08:18.157Z,24.77
2017-06-08T12:09:18.167Z,24.75
2017-06-08T12:10:18.518Z,24.69
2017-06-08T12:11:18.252Z,24.75
2017-06-08T12:12:18.302Z,24.79
2017-06-08T12:13:18.649Z,24.71
2017-06-08T12:14:18.392Z,24.75
2017-06-08T12:15:18.752Z,24.69
2017-06-08T12:16:18.477Z,24.76
2017-06-08T12:17:18.522Z,24.76
2017-06-08T12:18:18.583Z,24.79
2017-06-08T12:19:18.613Z,24.88
2017-06-08T12:20:18.691Z,24.88
2017-06-08T12:21:18.702Z,24.92
2017-06-08T12:22:19.061Z,25
2017-06-08T12:23:18.790Z,25.07
2017-06-08T12:24:18.832Z,25.06
2017-06-08T12:25:18.878Z,25.09
2017-06-08T12:26:18.941Z,25.09
2017-06-08T12:27:18.966Z,25.12
2017-06-08T12:28:19.007Z,25.13
2017-06-08T12:29:19.058Z,25.1
2017-06-08T12:30:19.404Z,25.05
2017-06-08T12:31:19.452Z,25
2017-06-08T12:32:19.189Z,25.01
2017-06-08T12:33:19.675Z,25.01
2017-06-08T12:34:19.281Z,25.13
2017-06-08T12:35:19.322Z,24.98
2017-06-08T12:36:19.366Z,25
2017-06-08T12:37:19.415Z,25.01
2017-06-08T12:38:19.452Z,24.98
2017-06-08T12:39:19.806Z,24.98
2017-06-08T12:40:19.858Z,25.02
2017-06-08T12:41:19.584Z,25.13
2017-06-08T12:42:19.667Z,25.13
2017-06-08T12:43:19.985Z,25.01
2017-06-08T12:44:19.718Z,25.01
2017-06-08T12:45:19.769Z,25.09
2017-06-08T12:46:19.808Z,25.06
2017-06-08T12:47:19.858Z,25.1
2017-06-08T12:48:19.900Z,25.16
2017-06-08T12:49:19.943Z,25
2017-06-08T12:50:19.986Z,25.09
2017-06-08T12:51:20.031Z,25.12
2017-06-08T12:52:20.079Z,25.15
2017-06-08T12:53:20.121Z,25.13
2017-06-08T12:54:20.168Z,25.1
2017-06-08T12:55:20.218Z,25.1
2017-06-08T12:56:20.259Z,25.09
2017-06-08T12:57:20.298Z,25.09